Aviation Digital Data Service (ADDS)

Output produced by METARs form (0931 UTC 17 November 2018)
found at http://www.aviationweather.gov/metar/data/
 
TISX 170521Z 1706/1806 07010KT P6SM -RA SCT020 BKN040 
     FM171300 11015G25KT P6SM VCSH SCT025 SCT050 
     FM172300 07010KT P6SM SCT025 
     FM180300 08005KT P6SM SCT025
       
TIST 170521Z 1706/1806 09010KT P6SM -RA SCT020 BKN040 
     FM171300 13015G25KT P6SM VCSH SCT025 SCT050 
     FM172300 09010KT P6SM SCT025